Time;durP1;ratioP1;P1;durP2;ratioP2;P2;SDS_P1;SDS_P2;PMS_P1;PMS_P2;Temp;Humidity;BMP_temperature;BMP_pressure;BME280_temperature;BME280_humidity;BME280_pressure;Samples;Min_cycle;Max_cycle;Signal;HPM_P1;HPM_P2
2024/02/17 00:01:29;;;;;;;22.13;9.50;;;;;;;11.18;100.00;101816.88;6229249;28;20084;-73
2024/02/17 00:04:31;;;;;;;20.75;9.27;;;;;;;11.24;100.00;101814.91;6236060;28;20052;-73
2024/02/17 00:07:32;;;;;;;19.98;9.93;;;;;;;11.05;100.00;101820.88;6231443;28;20354;-73
2024/02/17 00:10:35;;;;;;;21.70;9.43;;;;;;;11.00;100.00;101833.34;6228819;28;20056;-73
2024/02/17 00:13:36;;;;;;;17.42;8.43;;;;;;;11.04;100.00;101828.84;6228664;28;20350;-77
2024/02/17 00:16:37;;;;;;;24.20;8.75;;;;;;;11.02;100.00;101831.50;6228648;28;20046;-77
2024/02/17 00:19:39;;;;;;;16.73;9.02;;;;;;;11.10;100.00;101833.84;6228454;28;20107;-77
2024/02/17 00:22:40;;;;;;;41.95;17.88;;;;;;;11.00;100.00;101833.34;6228734;28;20132;-77
2024/02/17 00:25:43;;;;;;;22.52;9.18;;;;;;;11.00;100.00;101832.50;6228594;28;20050;-77
2024/02/17 00:28:44;;;;;;;19.15;9.00;;;;;;;11.02;100.00;101844.66;6227910;28;20350;-78
2024/02/17 00:31:46;;;;;;;18.20;7.72;;;;;;;10.99;100.00;101847.44;6241439;28;20045;-78
2024/02/17 00:34:47;;;;;;;20.40;8.45;;;;;;;10.97;100.00;101848.38;6229016;28;20076;-78
2024/02/17 00:37:49;;;;;;;27.17;9.15;;;;;;;10.98;100.00;101863.25;6227790;28;20046;-77
2024/02/17 00:40:51;;;;;;;20.45;9.15;;;;;;;11.03;100.00;101854.25;6228169;28;20073;-78
2024/02/17 00:43:53;;;;;;;27.58;9.15;;;;;;;10.92;100.00;101859.94;6227911;28;20422;-78
2024/02/17 00:46:54;;;;;;;22.95;8.45;;;;;;;10.91;100.00;101855.59;6228442;28;20053;-78
2024/02/17 00:49:55;;;;;;;20.08;7.40;;;;;;;10.95;100.00;101866.00;6227424;28;20053;-78
2024/02/17 00:52:57;;;;;;;20.20;7.47;;;;;;;10.81;100.00;101853.34;6228190;28;20053;-78
2024/02/17 00:55:59;;;;;;;15.93;6.85;;;;;;;10.79;100.00;101865.69;6226491;28;20057;-78
2024/02/17 00:59:01;;;;;;;18.73;7.32;;;;;;;10.75;100.00;101872.81;6227327;28;20346;-78
2024/02/17 01:02:02;;;;;;;19.73;7.07;;;;;;;10.77;100.00;101868.38;6227681;28;20072;-77
2024/02/17 01:05:04;;;;;;;19.10;8.13;;;;;;;10.76;100.00;101865.78;6244762;28;20045;-78
2024/02/17 01:08:06;;;;;;;13.05;6.75;;;;;;;10.72;100.00;101874.69;6235449;28;20057;-78
2024/02/17 01:11:08;;;;;;;15.25;6.20;;;;;;;10.72;100.00;101875.59;6227485;28;20042;-78
2024/02/17 01:14:10;;;;;;;14.32;5.97;;;;;;;10.80;100.00;101867.41;6229310;28;21625;-77
2024/02/17 01:17:11;;;;;;;14.13;6.07;;;;;;;10.78;100.00;101875.34;6229990;28;20054;-79
2024/02/17 01:20:12;;;;;;;13.52;6.53;;;;;;;10.81;100.00;101892.78;6230340;28;20049;-78
2024/02/17 01:23:14;;;;;;;19.38;7.22;;;;;;;10.73;100.00;101900.97;6251983;28;20049;-77
2024/02/17 01:26:16;;;;;;;17.25;7.43;;;;;;;10.75;100.00;101911.41;6243477;28;20069;-77
2024/02/17 01:29:18;;;;;;;13.25;6.78;;;;;;;10.73;100.00;101911.47;6249318;28;20041;-78
2024/02/17 01:32:20;;;;;;;20.75;9.77;;;;;;;10.78;100.00;101922.69;6251593;28;20354;-77
2024/02/17 01:35:21;;;;;;;17.77;6.97;;;;;;;10.75;100.00;101922.78;6283458;22;20045;-79
2024/02/17 01:38:22;;;;;;;20.88;7.55;;;;;;;10.80;100.00;101923.47;6275593;28;20361;-78
2024/02/17 01:41:25;;;;;;;20.50;7.97;;;;;;;10.76;100.00;101923.63;6276102;28;20049;-79
2024/02/17 01:44:27;;;;;;;17.95;8.50;;;;;;;10.85;100.00;101934.69;6275777;28;20057;-78
2024/02/17 01:47:28;;;;;;;19.60;9.18;;;;;;;10.79;100.00;101934.91;6275371;28;20041;-79
2024/02/17 01:50:30;;;;;;;19.83;8.88;;;;;;;10.71;100.00;101930.84;6271071;28;20044;-79
2024/02/17 01:53:32;;;;;;;16.75;8.07;;;;;;;10.59;100.00;101932.13;6272157;28;20349;-78
2024/02/17 01:56:36;;;;;;;19.30;8.13;;;;;;;10.52;100.00;101933.25;6275586;28;20049;-78
2024/02/17 01:59:38;;;;;;;18.98;7.97;;;;;;;10.49;100.00;101941.22;6275075;28;20045;-79
2024/02/17 02:02:42;;;;;;;15.00;7.30;;;;;;;10.44;100.00;101964.16;6275781;28;20459;-78
2024/02/17 02:05:44;;;;;;;19.23;7.40;;;;;;;10.50;100.00;101964.00;6274804;28;20056;-78
2024/02/17 02:08:45;;;;;;;17.48;7.25;;;;;;;10.46;100.00;101972.88;6275352;28;20048;-78
2024/02/17 02:11:48;;;;;;;19.17;7.10;;;;;;;10.53;100.00;101972.59;6275404;28;20048;-78
2024/02/17 02:15:02;;;;;;;14.40;6.97;;;;;;;10.48;100.00;101969.28;6275541;28;20163;-78
2024/02/17 02:18:04;;;;;;;18.42;6.70;;;;;;;10.43;100.00;101962.47;6274869;28;20057;-78
2024/02/17 02:21:05;;;;;;;12.98;6.80;;;;;;;10.40;100.00;101966.03;6275379;28;20041;-78
2024/02/17 02:24:07;;;;;;;14.90;5.93;;;;;;;10.37;100.00;101967.00;6275094;28;20075;-78
2024/02/17 02:27:09;;;;;;;14.77;6.32;;;;;;;10.33;100.00;101961.91;6275072;28;20071;-78
2024/02/17 02:30:11;;;;;;;11.88;6.03;;;;;;;10.23;100.00;101978.84;6274855;28;20049;-79
2024/02/17 02:33:13;;;;;;;15.13;5.70;;;;;;;10.20;100.00;101986.81;6274067;28;20049;-78
2024/02/17 02:36:16;;;;;;;9.77;5.60;;;;;;;10.21;100.00;101992.00;6273832;28;20376;-78
2024/02/17 02:39:17;;;;;;;12.00;6.22;;;;;;;10.14;100.00;101985.25;6273426;28;20425;-78
2024/02/17 02:42:20;;;;;;;14.60;6.22;;;;;;;10.09;100.00;101981.91;6274642;28;20072;-78
2024/02/17 02:45:21;;;;;;;12.70;5.75;;;;;;;10.10;100.00;101981.84;6273278;28;20523;-78
2024/02/17 02:48:23;;;;;;;14.63;5.88;;;;;;;10.18;100.00;101983.41;6266435;28;20422;-78
2024/02/17 02:51:24;;;;;;;16.85;5.72;;;;;;;10.12;100.00;101993.16;6265819;28;20040;-78
2024/02/17 02:54:25;;;;;;;9.57;5.80;;;;;;;9.98;100.00;101997.13;6274337;28;20384;-78
2024/02/17 02:57:28;;;;;;;11.65;6.45;;;;;;;10.07;100.00;102004.72;6263816;28;20048;-78
2024/02/17 03:00:29;;;;;;;12.25;5.60;;;;;;;10.02;100.00;102009.28;6269622;28;20053;-78
2024/02/17 03:03:31;;;;;;;13.02;5.45;;;;;;;10.11;100.00;102007.22;6262967;28;20433;-78
2024/02/17 03:06:32;;;;;;;13.32;5.65;;;;;;;10.06;100.00;102014.38;6266287;28;20472;-78
2024/02/17 03:09:33;;;;;;;20.20;6.60;;;;;;;10.11;100.00;102016.88;6274114;28;20045;-78
2024/02/17 03:12:36;;;;;;;17.30;7.20;;;;;;;10.04;100.00;102018.84;6274825;28;20053;-78
2024/02/17 03:15:38;;;;;;;14.73;5.63;;;;;;;10.02;100.00;102023.25;6274390;28;20056;-78
2024/02/17 03:18:40;;;;;;;14.68;6.18;;;;;;;10.06;100.00;102027.50;6276260;28;20049;-78
2024/02/17 03:21:41;;;;;;;11.68;6.38;;;;;;;9.98;100.00;102021.63;6271029;28;20075;-78
2024/02/17 03:24:42;;;;;;;21.33;5.88;;;;;;;9.95;100.00;102019.13;6278934;28;20053;-78
2024/02/17 03:27:45;;;;;;;16.60;6.57;;;;;;;9.98;100.00;102033.91;6269438;28;20426;-75
2024/02/17 03:30:46;;;;;;;14.27;6.65;;;;;;;10.00;100.00;102032.97;6269794;28;20052;-75
2024/02/17 03:33:48;;;;;;;13.98;5.40;;;;;;;9.91;100.00;102034.09;6275575;28;20449;-75
2024/02/17 03:36:49;;;;;;;14.57;5.95;;;;;;;9.86;100.00;102043.03;6264531;28;20095;-74
2024/02/17 03:39:51;;;;;;;14.32;6.65;;;;;;;10.03;100.00;102038.09;6264507;28;20077;-74
2024/02/17 03:42:53;;;;;;;15.75;6.80;;;;;;;9.92;100.00;102050.69;6267291;28;20053;-75
2024/02/17 03:45:55;;;;;;;16.73;6.63;;;;;;;9.86;100.00;102053.53;6263880;28;20402;-75
2024/02/17 03:48:56;;;;;;;18.10;7.00;;;;;;;9.84;100.00;102058.81;6264681;28;20041;-75
2024/02/17 03:51:57;;;;;;;15.18;6.75;;;;;;;9.83;100.00;102058.84;6266326;28;20052;-75
2024/02/17 03:54:59;;;;;;;17.70;6.53;;;;;;;9.80;100.00;102072.91;6265087;28;20050;-75
2024/02/17 03:58:01;;;;;;;22.08;6.63;;;;;;;9.90;100.00;102076.13;6256457;28;20049;-74
2024/02/17 04:01:03;;;;;;;16.13;6.32;;;;;;;9.95;100.00;102073.38;6263718;28;20055;-74
2024/02/17 04:04:05;;;;;;;19.20;7.00;;;;;;;9.94;100.00;102080.41;6278093;28;20044;-74
2024/02/17 04:07:06;;;;;;;19.52;7.53;;;;;;;9.90;100.00;102076.13;6278550;28;20053;-75
2024/02/17 04:10:08;;;;;;;16.25;6.60;;;;;;;10.01;100.00;102095.06;6277879;28;20345;-74
2024/02/17 04:13:11;;;;;;;14.07;6.88;;;;;;;10.02;100.00;102088.91;6278639;28;20048;-75
2024/02/17 04:16:12;;;;;;;16.70;6.78;;;;;;;9.93;100.00;102106.72;6277924;28;20053;-74
2024/02/17 04:19:14;;;;;;;15.90;6.32;;;;;;;9.93;100.00;102094.44;6277538;28;20056;-74
2024/02/17 04:22:16;;;;;;;14.77;6.75;;;;;;;9.98;100.00;102105.66;6278043;28;20052;-75
2024/02/17 04:25:17;;;;;;;14.60;6.28;;;;;;;10.04;100.00;102102.88;6277670;28;20057;-74
2024/02/17 04:28:20;;;;;;;13.93;6.63;;;;;;;9.97;100.00;102116.22;6277485;28;20053;-75
2024/02/17 04:31:21;;;;;;;20.73;7.70;;;;;;;9.99;100.00;102117.91;6277458;28;20052;-75
2024/02/17 04:34:22;;;;;;;20.42;8.07;;;;;;;9.79;100.00;102113.22;6277470;28;20057;-75
2024/02/17 04:37:24;;;;;;;14.07;6.22;;;;;;;9.91;100.00;102127.78;6277134;28;20053;-75
2024/02/17 04:40:25;;;;;;;14.43;6.40;;;;;;;9.90;100.00;102134.78;6277572;28;20373;-75
2024/02/17 04:43:28;;;;;;;15.90;7.05;;;;;;;9.91;100.00;102133.88;6277240;28;20052;-75
2024/02/17 04:46:29;;;;;;;17.60;6.15;;;;;;;10.01;100.00;102136.25;6268578;28;20456;-75
2024/02/17 04:49:30;;;;;;;20.05;6.57;;;;;;;10.04;100.00;102142.28;6264625;28;20045;-75
2024/02/17 04:52:32;;;;;;;15.65;7.03;;;;;;;9.95;100.00;102145.16;6277097;28;20425;-75
2024/02/17 04:55:33;;;;;;;17.15;6.50;;;;;;;9.90;100.00;102157.53;6277039;28;20049;-75
2024/02/17 04:58:35;;;;;;;16.55;5.97;;;;;;;9.92;100.00;102158.38;6271522;28;20128;-75
2024/02/17 05:01:37;;;;;;;11.98;5.95;;;;;;;9.87;100.00;102173.41;6274152;28;20040;-75
2024/02/17 05:04:38;;;;;;;15.60;5.75;;;;;;;9.94;100.00;102171.44;6276554;28;20052;-75
2024/02/17 05:07:39;;;;;;;17.83;5.80;;;;;;;9.84;100.00;102169.06;6276604;28;20055;-75
2024/02/17 05:10:41;;;;;;;13.35;5.00;;;;;;;9.90;100.00;102178.53;6270809;28;20434;-75
2024/02/17 05:13:43;;;;;;;15.60;5.65;;;;;;;9.90;100.00;102186.41;6274398;28;20056;-74
2024/02/17 05:16:45;;;;;;;16.70;5.70;;;;;;;9.91;100.00;102193.41;6276617;28;20606;-75
2024/02/17 05:19:47;;;;;;;11.32;5.35;;;;;;;9.80;100.00;102200.69;6276353;28;20059;-75
2024/02/17 05:22:48;;;;;;;11.85;4.78;;;;;;;9.74;100.00;102206.97;6276519;28;20353;-75
2024/02/17 05:25:49;;;;;;;9.63;4.72;;;;;;;9.72;100.00;102203.56;6276158;28;20048;-75
2024/02/17 05:28:52;;;;;;;8.80;4.85;;;;;;;9.82;100.00;102212.91;6276107;28;20134;-74
2024/02/17 05:31:53;;;;;;;10.20;3.83;;;;;;;9.87;100.00;102215.41;6276290;28;20436;-74
2024/02/17 05:34:55;;;;;;;15.82;4.40;;;;;;;9.74;100.00;102220.13;6275969;28;20056;-75
2024/02/17 05:37:56;;;;;;;12.70;3.80;;;;;;;9.75;100.00;102232.34;6267197;28;20056;-75
2024/02/17 05:40:57;;;;;;;8.93;3.33;;;;;;;9.74;100.00;102232.38;6267069;28;20041;-74
2024/02/17 05:44:00;;;;;;;4.75;2.53;;;;;;;9.61;100.00;102235.31;6275672;28;20049;-74
2024/02/17 05:47:01;;;;;;;4.22;1.83;;;;;;;9.74;100.00;102256.00;6276082;28;20049;-74
2024/02/17 05:50:04;;;;;;;3.72;1.67;;;;;;;9.73;100.00;102254.28;6275261;28;20349;-75
2024/02/17 05:53:05;;;;;;;3.78;1.88;;;;;;;9.73;100.00;102252.53;6276146;28;20057;-75
2024/02/17 05:56:07;;;;;;;9.15;1.60;;;;;;;9.60;100.00;102253.72;6275449;28;20361;-75
2024/02/17 05:59:09;;;;;;;3.80;1.50;;;;;;;9.72;100.00;102255.16;6275141;28;20052;-75
2024/02/17 06:02:11;;;;;;;3.42;1.40;;;;;;;9.66;100.00;102254.44;6275657;28;20345;-74
2024/02/17 06:05:12;;;;;;;2.38;1.52;;;;;;;9.73;100.00;102260.41;6275249;28;20052;-74
2024/02/17 06:08:13;;;;;;;2.47;1.75;;;;;;;9.82;100.00;102264.56;6275252;28;20449;-75
2024/02/17 06:11:15;;;;;;;2.20;1.25;;;;;;;9.82;100.00;102272.44;6275360;28;20044;-75
2024/02/17 06:14:18;;;;;;;3.10;1.52;;;;;;;9.87;100.00;102274.03;6275369;28;20131;-75
2024/02/17 06:17:22;;;;;;;2.58;1.25;;;;;;;9.78;100.00;102276.03;6275082;28;20060;-74
2024/02/17 06:23:44;;;;;;;7.35;2.28;;;;;;;9.76;100.00;102281.31;6275116;28;20057;-75
2024/02/17 06:26:46;;;;;;;7.38;3.38;;;;;;;9.76;100.00;102288.31;6275375;28;20095;-75
2024/02/17 06:29:48;;;;;;;5.70;2.80;;;;;;;9.86;100.00;102287.22;6274698;28;20060;-74
2024/02/17 06:32:49;;;;;;;6.65;2.15;;;;;;;9.75;100.00;102294.47;6275058;28;20330;-74
2024/02/17 06:35:51;;;;;;;5.28;2.22;;;;;;;9.71;100.00;102309.44;6274641;28;20056;-75
2024/02/17 06:38:52;;;;;;;5.90;2.05;;;;;;;9.75;100.00;102310.22;6268131;28;20438;-75
2024/02/17 06:41:53;;;;;;;3.88;1.98;;;;;;;9.78;100.00;102318.91;6261921;28;20049;-75
2024/02/17 06:44:56;;;;;;;3.72;2.30;;;;;;;9.77;100.00;102314.56;6267410;28;20048;-75
2024/02/17 06:47:58;;;;;;;6.90;2.70;;;;;;;9.76;100.00;102325.94;6263934;28;20361;-75
2024/02/17 06:50:59;;;;;;;5.97;2.47;;;;;;;9.77;100.00;102327.69;6258332;28;20182;-75
2024/02/17 06:54:00;;;;;;;4.22;2.55;;;;;;;9.83;100.00;102332.78;6266926;28;20049;-78
2024/02/17 06:57:02;;;;;;;4.82;2.53;;;;;;;9.81;100.00;102341.56;6262150;28;20363;-78
2024/02/17 07:00:06;;;;;;;9.63;2.88;;;;;;;9.77;100.00;102338.19;6267181;28;20049;-78
2024/02/17 07:03:07;;;;;;;12.90;3.58;;;;;;;9.76;100.00;102344.31;6274297;28;20053;-78
2024/02/17 07:06:08;;;;;;;5.10;2.80;;;;;;;9.76;100.00;102351.31;6279424;28;20334;-78
2024/02/17 07:09:14;;;;;;;5.60;2.45;;;;;;;9.77;100.00;102361.81;6278823;28;20041;-78
2024/02/17 07:12:15;;;;;;;7.28;3.20;;;;;;;9.79;100.00;102370.50;6279884;28;20052;-78
2024/02/17 07:15:18;;;;;;;7.32;2.88;;;;;;;9.82;100.00;102372.22;6273166;28;20075;-78
2024/02/17 07:18:19;;;;;;;8.52;2.78;;;;;;;9.81;100.00;102384.47;6267871;28;20049;-79
2024/02/17 07:21:21;;;;;;;6.05;3.03;;;;;;;9.80;100.00;102395.00;6267741;28;20123;-78
2024/02/17 07:24:22;;;;;;;4.90;2.45;;;;;;;9.81;100.00;102397.59;6265011;28;20041;-78
2024/02/17 07:27:24;;;;;;;6.03;3.03;;;;;;;9.82;100.00;102406.34;6264912;28;20060;-79
2024/02/17 07:30:28;;;;;;;9.13;3.60;;;;;;;9.83;100.00;102410.69;6271867;28;20045;-79
2024/02/17 07:33:30;;;;;;;6.85;2.78;;;;;;;9.86;100.00;102408.00;6262181;28;20571;-78
2024/02/17 07:36:31;;;;;;;6.07;3.00;;;;;;;9.66;100.00;102417.19;6298960;23;20059;-75
2024/02/17 07:39:35;;;;;;;6.53;2.90;;;;;;;9.83;100.00;102419.41;6303241;28;20048;-75
2024/02/17 07:42:38;;;;;;;6.80;2.70;;;;;;;9.74;100.00;102432.75;6303957;28;20098;-75
2024/02/17 07:45:41;;;;;;;12.82;3.08;;;;;;;9.73;100.00;102438.91;6309719;28;20059;-75
2024/02/17 07:48:42;;;;;;;9.70;3.10;;;;;;;9.82;100.00;102441.34;6319942;28;20131;-75
2024/02/17 07:51:44;;;;;;;7.25;3.03;;;;;;;9.98;100.00;102447.06;6328623;28;20047;-74
2024/02/17 07:54:45;;;;;;;6.25;2.90;;;;;;;9.86;100.00;102452.63;6328554;28;20368;-74
2024/02/17 07:57:46;;;;;;;5.00;2.78;;;;;;;9.78;100.00;102460.69;6328104;28;20044;-75
2024/02/17 08:00:49;;;;;;;7.07;2.35;;;;;;;9.76;100.00;102472.09;6329017;28;20048;-75
2024/02/17 08:03:50;;;;;;;6.43;2.65;;;;;;;9.82;100.00;102478.09;6327422;28;20048;-74
2024/02/17 08:06:52;;;;;;;7.40;2.35;;;;;;;9.90;100.00;102483.16;6322293;28;20352;-75
2024/02/17 08:09:53;;;;;;;4.70;2.70;;;;;;;9.86;100.00;102484.16;6304690;28;20067;-75
2024/02/17 08:12:54;;;;;;;4.28;1.77;;;;;;;9.90;100.00;102486.66;6303708;28;20040;-74
2024/02/17 08:15:57;;;;;;;8.57;2.50;;;;;;;9.90;100.00;102484.03;6302966;28;20048;-75
2024/02/17 08:18:58;;;;;;;7.63;2.30;;;;;;;9.87;100.00;102501.63;6302499;28;20048;-75
2024/02/17 08:22:00;;;;;;;3.50;1.90;;;;;;;9.79;100.00;102503.53;6302998;28;20053;-75
2024/02/17 08:25:03;;;;;;;7.05;2.83;;;;;;;9.82;100.00;102503.50;6302492;28;20060;-74
2024/02/17 08:28:05;;;;;;;4.13;2.17;;;;;;;9.91;100.00;102505.91;6302506;28;20048;-75
2024/02/17 08:31:08;;;;;;;12.07;2.55;;;;;;;9.77;100.00;102511.47;6302428;28;20349;-75
2024/02/17 08:34:09;;;;;;;8.85;2.10;;;;;;;9.80;100.00;102514.00;6305853;28;20052;-75
2024/02/17 08:37:12;;;;;;;3.13;1.83;;;;;;;9.84;100.00;102522.69;6317617;28;20075;-75
2024/02/17 08:40:14;;;;;;;5.35;2.05;;;;;;;9.80;100.00;102535.00;6318847;28;20131;-75
2024/02/17 08:43:15;;;;;;;6.72;2.22;;;;;;;9.77;100.00;102534.25;6327597;28;20044;-74
2024/02/17 08:46:18;;;;;;;9.02;2.45;;;;;;;9.81;100.00;102541.13;6318307;28;20384;-75
2024/02/17 08:49:19;;;;;;;4.18;1.75;;;;;;;9.84;100.00;102541.06;6320863;28;20063;-74
2024/02/17 08:52:21;;;;;;;3.42;2.40;;;;;;;9.84;100.00;102539.31;6318531;28;20048;-75
2024/02/17 08:55:23;;;;;;;5.40;1.60;;;;;;;9.93;100.00;102547.88;6327169;28;20056;-75
2024/02/17 08:58:24;;;;;;;4.88;1.70;;;;;;;9.94;100.00;102557.47;6323832;28;20181;-74
2024/02/17 09:01:27;;;;;;;3.22;1.58;;;;;;;9.82;100.00;102564.75;6320383;28;20431;-74
2024/02/17 09:04:28;;;;;;;5.68;1.92;;;;;;;9.74;100.00;102571.91;6318331;28;20127;-74
2024/02/17 09:07:29;;;;;;;4.65;1.17;;;;;;;9.68;100.00;102585.16;6323112;28;20064;-74
2024/02/17 09:10:31;;;;;;;3.85;1.88;;;;;;;9.35;100.00;102578.78;6312059;28;20052;-73
2024/02/17 09:13:32;;;;;;;2.50;1.10;;;;;;;9.47;100.00;102590.84;6322656;28;20055;-74
2024/02/17 09:16:35;;;;;;;5.75;1.45;;;;;;;9.15;100.00;102592.28;6325454;28;20044;-74
2024/02/17 09:19:36;;;;;;;3.10;1.50;;;;;;;9.05;100.00;102609.94;6317648;28;20051;-75
2024/02/17 09:22:37;;;;;;;1.75;0.80;;;;;;;9.28;100.00;102612.16;6326699;28;20052;-75
2024/02/17 09:25:40;;;;;;;0.85;0.68;;;;;;;9.11;100.00;102609.81;6326297;28;20055;-74
2024/02/17 09:28:41;;;;;;;1.45;0.80;;;;;;;9.20;100.00;102619.28;6317224;28;20044;-74
2024/02/17 09:31:44;;;;;;;2.38;1.13;;;;;;;9.23;100.00;102621.88;6326343;28;20048;-75
2024/02/17 09:34:45;;;;;;;2.25;1.00;;;;;;;9.17;100.00;102624.59;6324280;28;20047;-75
2024/02/17 09:37:54;;;;;;;3.80;1.45;;;;;;;9.29;100.00;102628.75;6311237;27;20374;-75
2024/02/17 09:40:55;;;;;;;2.75;1.05;;;;;;;9.18;100.00;102642.09;6321760;28;20853;-74
2024/02/17 09:43:57;;;;;;;2.15;1.23;;;;;;;9.11;100.00;102638.69;6314369;28;20047;-75
2024/02/17 09:46:58;;;;;;;2.22;1.48;;;;;;;9.08;100.00;102648.34;6291336;28;20369;-74
2024/02/17 09:50:02;;;;;;;1.80;1.20;;;;;;;8.92;100.00;102639.88;6280485;28;20053;-75
2024/02/17 09:53:07;;;;;;;3.25;1.25;;;;;;;9.09;100.00;102653.59;6271826;28;20521;-74
2024/02/17 09:56:08;;;;;;;2.47;0.82;;;;;;;9.03;100.00;102671.16;6271393;28;20052;-73
2024/02/17 09:59:10;;;;;;;5.82;2.08;;;;;;;9.07;100.00;102657.97;6271297;28;20057;-75
2024/02/17 10:02:12;;;;;;;2.97;1.00;;;;;;;9.02;100.00;102665.06;6271458;28;20045;-74
2024/02/17 10:05:13;;;;;;;1.23;0.63;;;;;;;9.08;100.00;102661.47;6271424;28;20053;-75
2024/02/17 10:08:16;;;;;;;1.75;1.15;;;;;;;9.05;100.00;102654.53;6270729;28;20458;-73
2024/02/17 10:11:17;;;;;;;2.13;1.02;;;;;;;9.33;100.00;102660.16;6295574;28;20049;-75
2024/02/17 10:14:23;;;;;;;2.22;0.95;;;;;;;9.35;100.00;102665.38;6295564;28;20056;-74
2024/02/17 10:17:25;;;;;;;0.90;0.70;;;;;;;9.32;100.00;102668.06;6288451;28;20556;-74
2024/02/17 10:20:26;;;;;;;0.98;0.80;;;;;;;9.06;100.00;102673.75;6284647;28;20056;-74
2024/02/17 10:23:29;;;;;;;2.15;0.80;;;;;;;9.00;100.00;102685.22;6271010;28;20060;-74
2024/02/17 10:26:30;;;;;;;1.00;0.60;;;;;;;9.21;100.00;102691.84;6286450;28;20373;-74
2024/02/17 10:29:32;;;;;;;1.83;0.70;;;;;;;9.29;100.00;102686.47;6275213;28;20057;-74
2024/02/17 10:32:33;;;;;;;1.45;0.63;;;;;;;9.47;100.00;102694.03;6270831;28;20045;-75
2024/02/17 10:35:36;;;;;;;0.52;0.50;;;;;;;9.52;100.00;102699.22;6270173;28;20045;-75
2024/02/17 10:38:41;;;;;;;1.00;0.80;;;;;;;9.79;100.00;102709.22;6273646;28;20059;-76
2024/02/17 10:41:46;;;;;;;0.68;0.60;;;;;;;9.82;100.00;102713.56;6289436;28;20350;-76
2024/02/17 10:44:48;;;;;;;1.08;0.90;;;;;;;9.60;100.00;102713.94;6280891;28;20060;-76
2024/02/17 10:47:59;;;;;;;3.00;0.93;;;;;;;9.63;100.00;102721.75;6285672;28;20052;-77
2024/02/17 10:51:00;;;;;;;1.55;0.60;;;;;;;9.54;100.00;102723.69;6278639;28;20056;-77
2024/02/17 10:54:06;;;;;;;2.13;0.90;;;;;;;9.39;100.00;102724.78;6254065;28;20045;-76
2024/02/17 10:57:11;;;;;;;2.47;0.95;;;;;;;9.39;100.00;102735.28;6253614;28;20041;-77
2024/02/17 11:00:14;;;;;;;3.88;0.80;;;;;;;9.32;100.00;102749.41;6269453;28;20056;-76
2024/02/17 11:03:20;;;;;;;7.43;0.63;;;;;;;9.21;100.00;102743.44;6275165;28;20068;-76
2024/02/17 11:06:22;;;;;;;3.13;0.65;;;;;;;9.27;100.00;102746.88;6274703;28;20056;-76
2024/02/17 11:09:26;;;;;;;2.40;0.70;;;;;;;9.27;100.00;102741.63;6267128;28;20056;-73
2024/02/17 11:12:31;;;;;;;0.70;0.70;;;;;;;9.31;100.00;102737.16;6267097;28;20055;-76
2024/02/17 11:15:33;;;;;;;2.70;0.82;;;;;;;9.43;100.00;102730.84;6257427;28;20195;-76
2024/02/17 11:18:36;;;;;;;1.75;0.90;;;;;;;9.56;100.00;102735.88;6267351;28;20437;-77
2024/02/17 11:21:40;;;;;;;1.50;0.60;;;;;;;9.68;100.00;102737.44;6275953;28;20049;-76
2024/02/17 11:24:45;;;;;;;2.15;0.80;;;;;;;9.92;100.00;102749.25;6276763;28;20048;-75
2024/02/17 11:27:46;;;;;;;1.88;0.90;;;;;;;9.94;100.00;102750.06;6276515;28;20044;-76
2024/02/17 11:30:49;;;;;;;3.92;0.88;;;;;;;9.87;100.00;102751.09;6272425;28;20361;-78
2024/02/17 11:33:53;;;;;;;1.65;0.57;;;;;;;9.91;100.00;102758.88;6270617;28;20083;-78
2024/02/17 11:36:56;;;;;;;5.38;1.05;;;;;;;9.90;100.00;102751.91;6275193;28;20372;-77
2024/02/17 11:40:01;;;;;;;1.17;0.80;;;;;;;9.87;100.00;102758.97;6275355;28;20045;-75
2024/02/17 11:43:03;;;;;;;2.42;1.10;;;;;;;9.70;100.00;102753.16;6277077;28;20611;-76
2024/02/17 11:46:05;;;;;;;3.25;0.70;;;;;;;9.92;100.00;102751.88;6267942;28;20055;-76
2024/02/17 11:49:10;;;;;;;5.18;1.00;;;;;;;9.94;100.00;102757.94;6254400;28;20050;-76
2024/02/17 11:52:11;;;;;;;1.58;0.80;;;;;;;10.16;100.00;102758.41;6271627;28;20049;-75
2024/02/17 11:55:15;;;;;;;1.77;0.90;;;;;;;10.26;100.00;102762.63;6276914;28;20049;-75
2024/02/17 11:58:17;;;;;;;1.58;0.93;;;;;;;10.17;100.00;102760.13;6274600;28;20357;-76
2024/02/17 12:01:19;;;;;;;1.25;0.90;;;;;;;10.03;100.00;102764.78;6251820;28;20050;-77
2024/02/17 12:04:21;;;;;;;3.90;0.75;;;;;;;9.99;100.00;102768.38;6248864;28;20053;-75
2024/02/17 12:07:23;;;;;;;2.80;1.10;;;;;;;9.92;100.00;102762.38;6274540;28;20357;-76
2024/02/17 12:10:25;;;;;;;2.97;1.75;;;;;;;10.25;100.00;102768.78;6275021;28;20045;-75
2024/02/17 12:13:27;;;;;;;5.07;1.50;;;;;;;10.20;100.00;102767.13;6264636;28;20065;-75
2024/02/17 12:16:29;;;;;;;1.52;1.42;;;;;;;10.22;100.00;102771.47;6270786;28;20052;-76
2024/02/17 12:19:30;;;;;;;3.78;1.48;;;;;;;10.38;100.00;102772.03;6263671;28;20460;-78
2024/02/17 12:22:32;;;;;;;3.53;1.10;;;;;;;10.49;100.00;102772.72;6274476;28;20048;-77
2024/02/17 12:25:36;;;;;;;1.65;1.33;;;;;;;10.58;100.00;102774.25;6269146;28;20434;-77
2024/02/17 12:28:40;;;;;;;2.75;1.80;;;;;;;10.57;100.00;102776.00;6275561;28;20041;-77
2024/02/17 12:31:46;;;;;;;2.83;1.95;;;;;;;10.65;100.00;102783.75;6262850;28;20469;-77
2024/02/17 12:34:47;;;;;;;2.65;2.03;;;;;;;10.39;100.00;102787.75;6263157;28;20041;-77
2024/02/17 12:37:50;;;;;;;3.45;2.15;;;;;;;10.37;100.00;102772.94;6274587;28;20045;-77
2024/02/17 12:40:53;;;;;;;3.33;1.52;;;;;;;10.34;100.00;102788.75;6261439;28;20084;-77
2024/02/17 12:43:55;;;;;;;3.40;1.67;;;;;;;10.34;100.00;102786.13;6256731;28;20045;-78
2024/02/17 12:46:57;;;;;;;3.10;1.63;;;;;;;10.39;100.00;102785.13;6263981;28;20041;-78
2024/02/17 12:50:00;;;;;;;7.65;1.67;;;;;;;10.21;100.00;102785.47;6272652;28;20052;-76
2024/02/17 12:53:13;;;;;;;2.28;1.48;;;;;;;10.28;100.00;102787.13;6263507;28;20045;-75
2024/02/17 12:56:17;;;;;;;5.65;1.73;;;;;;;10.28;100.00;102783.63;6273214;28;20088;-77
2024/02/17 12:59:18;;;;;;;2.40;1.40;;;;;;;10.31;100.00;102799.31;6262262;28;20047;-77
2024/02/17 13:02:19;;;;;;;2.13;1.40;;;;;;;10.21;100.00;102797.75;6268739;28;20053;-76
2024/02/17 13:05:21;;;;;;;4.85;1.95;;;;;;;10.14;100.00;102805.75;6268897;28;20048;-77
2024/02/17 13:08:22;;;;;;;3.30;2.30;;;;;;;10.02;100.00;102805.97;6270100;28;20049;-77
2024/02/17 13:11:25;;;;;;;5.70;2.67;;;;;;;10.06;100.00;102805.00;6274534;28;20052;-75
2024/02/17 13:14:27;;;;;;;4.00;1.98;;;;;;;10.26;100.00;102809.94;6264321;28;20050;-76
2024/02/17 13:17:28;;;;;;;4.07;2.83;;;;;;;10.84;100.00;102813.16;6249699;28;20052;-77
2024/02/17 13:20:29;;;;;;;2.92;2.33;;;;;;;11.01;100.00;102821.56;6258235;28;20053;-76
2024/02/17 13:23:31;;;;;;;3.45;2.00;;;;;;;11.21;100.00;102801.81;6275255;28;20053;-74
2024/02/17 13:26:34;;;;;;;3.83;2.00;;;;;;;11.43;100.00;102801.28;6274743;28;20080;-77
2024/02/17 13:29:35;;;;;;;5.30;2.10;;;;;;;11.61;100.00;102805.22;6274606;28;20115;-77
2024/02/17 13:32:42;;;;;;;6.30;2.78;;;;;;;11.61;100.00;102802.59;6274368;28;20072;-76
2024/02/17 13:35:43;;;;;;;10.85;2.22;;;;;;;11.87;100.00;102804.63;6294321;22;20124;-76
2024/02/17 13:38:45;;;;;;;2.50;1.50;;;;;;;12.02;100.00;102803.34;6225219;28;20061;-77
2024/02/17 13:41:47;;;;;;;4.13;2.08;;;;;;;11.90;100.00;102811.59;6226235;28;20358;-76
2024/02/17 13:44:49;;;;;;;5.65;1.88;;;;;;;12.19;100.00;102803.78;6222555;28;20046;-77
2024/02/17 13:47:50;;;;;;;6.80;1.90;;;;;;;12.33;100.00;102818.34;6224099;28;20042;-76
2024/02/17 13:50:52;;;;;;;3.65;1.80;;;;;;;11.97;100.00;102815.78;6218884;28;20053;-75
2024/02/17 13:53:53;;;;;;;3.17;1.55;;;;;;;12.13;100.00;102816.25;6222583;28;20358;-77
2024/02/17 13:56:56;;;;;;;5.55;1.52;;;;;;;11.95;100.00;102820.25;6224758;28;20045;-76
2024/02/17 13:59:58;;;;;;;4.53;1.90;;;;;;;11.48;100.00;102814.34;6219238;28;20050;-76
2024/02/17 14:03:01;;;;;;;7.30;2.03;;;;;;;11.33;100.00;102828.72;6211255;28;20053;-76